Time;durP1;ratioP1;P1;durP2;ratioP2;P2;SDS_P1;SDS_P2;PMS_P1;PMS_P2;Temp;Humidity;BMP_temperature;BMP_pressure;BME280_temperature;BME280_humidity;BME280_pressure;Samples;Min_cycle;Max_cycle;Signal;HPM_P1;HPM_P2
2022/04/09 00:01:26;;;;;;;51.10;13.77;;;;;;;;;;5117474;28;20015;-73
2022/04/09 00:03:52;;;;;;;51.90;13.02;;;;;;;;;;5118619;28;20024;-73
2022/04/09 00:06:18;;;;;;;43.47;14.38;;;;;;;;;;5119996;28;20037;-72
2022/04/09 00:08:44;;;;;;;35.45;12.75;;;;;;;;;;5117991;28;20019;-73
2022/04/09 00:11:10;;;;;;;56.50;13.50;;;;;;;;;;5118363;28;20043;-73
2022/04/09 00:13:37;;;;;;;48.47;15.07;;;;;;;;;;5118909;28;20019;-73
2022/04/09 00:16:03;;;;;;;46.85;12.98;;;;;;;;;;5118147;28;20033;-73
2022/04/09 00:18:29;;;;;;;40.45;12.25;;;;;;;;;;5117798;28;20026;-73
2022/04/09 00:20:55;;;;;;;51.53;13.68;;;;;;;;;;5118319;28;20413;-73
2022/04/09 00:23:23;;;;;;;50.60;11.77;;;;;;;;;;5117177;28;20541;-73
2022/04/09 00:25:50;;;;;;;44.28;12.43;;;;;;;;;;5118189;28;20015;-73
2022/04/09 00:28:15;;;;;;;41.65;12.50;;;;;;;;;;5117673;27;20022;-73
2022/04/09 00:30:41;;;;;;;44.60;13.25;;;;;;;;;;5118138;28;20032;-73
2022/04/09 00:33:07;;;;;;;34.25;13.63;;;;;;;;;;5118058;28;20046;-73
2022/04/09 00:35:34;;;;;;;46.13;13.00;;;;;;;;;;5120099;28;20034;-73
2022/04/09 00:38:00;;;;;;;50.67;13.68;;;;;;;;;;5118430;28;20114;-73
2022/04/09 00:40:26;;;;;;;39.85;15.10;;;;;;;;;;5116743;28;20340;-73
2022/04/09 00:42:52;;;;;;;48.20;14.95;;;;;;;;;;5117491;28;20051;-73
2022/04/09 00:45:18;;;;;;;49.03;15.88;;;;;;;;;;5116779;28;20047;-73
2022/04/09 00:47:44;;;;;;;44.47;16.13;;;;;;;;;;5117950;28;20012;-73
2022/04/09 00:50:11;;;;;;;57.58;19.85;;;;;;;;;;5116701;28;20072;-73
2022/04/09 00:52:41;;;;;;;48.22;18.00;;;;;;;;;;5118590;28;20015;-73
2022/04/09 00:55:07;;;;;;;61.58;17.27;;;;;;;;;;5117851;28;20488;-73
2022/04/09 00:57:37;;;;;;;51.25;16.95;;;;;;;;;;5117720;28;20059;-73
2022/04/09 01:00:09;;;;;;;65.85;20.35;;;;;;;;;;5117920;28;20379;-73
2022/04/09 01:02:42;;;;;;;47.67;21.83;;;;;;;;;;5117775;28;20024;-73
2022/04/09 01:05:08;;;;;;;56.90;18.30;;;;;;;;;;5117904;28;20016;-73
2022/04/09 01:07:35;;;;;;;43.97;17.08;;;;;;;;;;5117873;28;20078;-73
2022/04/09 01:10:02;;;;;;;63.20;18.98;;;;;;;;;;5119059;28;20035;-73
2022/04/09 01:12:28;;;;;;;43.20;16.65;;;;;;;;;;5117457;28;20022;-73
2022/04/09 01:14:54;;;;;;;42.30;17.25;;;;;;;;;;5117405;28;20413;-73
2022/04/09 01:17:20;;;;;;;62.47;18.05;;;;;;;;;;5116150;28;20016;-73
2022/04/09 01:19:46;;;;;;;40.30;13.05;;;;;;;;;;5116958;28;20088;-73
2022/04/09 01:22:12;;;;;;;47.13;14.13;;;;;;;;;;5116676;28;20505;-73
2022/04/09 01:24:38;;;;;;;45.55;13.23;;;;;;;;;;5118097;28;20023;-73
2022/04/09 01:27:04;;;;;;;42.67;12.25;;;;;;;;;;5117142;28;20046;-73
2022/04/09 01:29:30;;;;;;;41.33;15.15;;;;;;;;;;5114993;28;20088;-73
2022/04/09 01:31:56;;;;;;;41.50;14.57;;;;;;;;;;5116177;28;20445;-72
2022/04/09 01:34:22;;;;;;;48.42;16.75;;;;;;;;;;5122416;28;20024;-73
2022/04/09 01:36:48;;;;;;;44.58;13.73;;;;;;;;;;5116160;28;20015;-73
2022/04/09 01:39:17;;;;;;;36.15;13.07;;;;;;;;;;5115527;28;20047;-73
2022/04/09 01:41:45;;;;;;;37.70;12.77;;;;;;;;;;5116120;28;20372;-73
2022/04/09 01:44:11;;;;;;;55.20;16.63;;;;;;;;;;5116395;28;20502;-73
2022/04/09 01:46:40;;;;;;;48.92;15.98;;;;;;;;;;5116424;28;20421;-73
2022/04/09 01:49:07;;;;;;;39.35;14.57;;;;;;;;;;5116775;28;20352;-73
2022/04/09 01:51:33;;;;;;;45.58;14.70;;;;;;;;;;5119423;28;20122;-73
2022/04/09 01:53:59;;;;;;;55.00;14.43;;;;;;;;;;5127302;28;20016;-73
2022/04/09 01:56:25;;;;;;;45.58;15.27;;;;;;;;;;5120455;28;20034;-73
2022/04/09 01:58:51;;;;;;;52.90;15.45;;;;;;;;;;5120198;28;20094;-73
2022/04/09 02:01:17;;;;;;;38.42;14.98;;;;;;;;;;5118641;28;20103;-72
2022/04/09 02:03:43;;;;;;;59.83;16.70;;;;;;;;;;5119622;28;20098;-72
2022/04/09 02:06:09;;;;;;;35.33;13.27;;;;;;;;;;5119050;28;20031;-72
2022/04/09 02:08:35;;;;;;;27.10;12.60;;;;;;;;;;5120110;28;20024;-73
2022/04/09 02:11:01;;;;;;;31.08;12.52;;;;;;;;;;5119373;28;20084;-73
2022/04/09 02:13:27;;;;;;;38.08;12.27;;;;;;;;;;5119737;28;20015;-73
2022/04/09 02:15:53;;;;;;;36.17;12.23;;;;;;;;;;5118591;28;20115;-73
2022/04/09 02:18:19;;;;;;;33.55;10.95;;;;;;;;;;5120071;28;20020;-73
2022/04/09 02:20:45;;;;;;;29.55;10.77;;;;;;;;;;5119787;28;20330;-73
2022/04/09 02:23:11;;;;;;;33.15;10.38;;;;;;;;;;5118193;28;20374;-73
2022/04/09 02:25:37;;;;;;;43.38;11.45;;;;;;;;;;5118554;28;20023;-73
2022/04/09 02:28:04;;;;;;;26.42;9.23;;;;;;;;;;5118543;28;20329;-73
2022/04/09 02:30:29;;;;;;;26.15;9.70;;;;;;;;;;5119520;28;20452;-73
2022/04/09 02:32:56;;;;;;;38.50;11.00;;;;;;;;;;5119379;28;20023;-73
2022/04/09 02:35:26;;;;;;;38.88;8.90;;;;;;;;;;5119339;28;20122;-73
2022/04/09 02:37:52;;;;;;;;;;;;;;;;;;5120004;28;20062;-73
2022/04/09 02:40:18;;;;;;;42.35;10.82;;;;;;;;;;5118466;28;19904;-73
2022/04/09 02:42:47;;;;;;;38.47;12.50;;;;;;;;;;5118754;28;20022;-73
2022/04/09 02:45:13;;;;;;;26.13;9.45;;;;;;;;;;5118683;28;20024;-73
2022/04/09 02:47:40;;;;;;;164.35;22.40;;;;;;;;;;5118832;28;20018;-73
2022/04/09 02:50:06;;;;;;;71.57;14.50;;;;;;;;;;5117778;28;20028;-73
2022/04/09 02:52:41;;;;;;;31.38;9.93;;;;;;;;;;5119092;28;20024;-73
2022/04/09 02:55:08;;;;;;;36.55;11.18;;;;;;;;;;5118697;28;20073;-73
2022/04/09 02:57:34;;;;;;;68.80;12.60;;;;;;;;;;5118638;28;20106;-73
2022/04/09 03:00:00;;;;;;;51.85;15.77;;;;;;;;;;5118375;28;20031;-73
2022/04/09 03:02:26;;;;;;;41.30;10.50;;;;;;;;;;5117910;28;20030;-73
2022/04/09 03:04:53;;;;;;;31.02;9.00;;;;;;;;;;5117691;28;20087;-73
2022/04/09 03:07:21;;;;;;;41.90;11.90;;;;;;;;;;5121039;28;20019;-72
2022/04/09 03:09:48;;;;;;;38.90;10.98;;;;;;;;;;5119069;28;20038;-72
2022/04/09 03:12:14;;;;;;;58.38;14.45;;;;;;;;;;5121880;28;20019;-73
2022/04/09 03:14:40;;;;;;;37.80;11.57;;;;;;;;;;5122543;28;20020;-72
2022/04/09 03:17:06;;;;;;;38.00;10.68;;;;;;;;;;5119184;28;20330;-72
2022/04/09 03:19:32;;;;;;;37.15;10.50;;;;;;;;;;5120418;28;20015;-73
2022/04/09 03:21:58;;;;;;;39.40;10.00;;;;;;;;;;5115946;28;20015;-73
2022/04/09 03:24:24;;;;;;;61.45;16.85;;;;;;;;;;5117882;28;20412;-73
2022/04/09 03:26:50;;;;;;;36.00;11.80;;;;;;;;;;5119442;28;20016;-73
2022/04/09 03:29:16;;;;;;;90.07;16.73;;;;;;;;;;5118602;28;20370;-72
2022/04/09 03:31:42;;;;;;;44.90;12.57;;;;;;;;;;5117987;28;20383;-73
2022/04/09 03:34:08;;;;;;;28.42;9.13;;;;;;;;;;5117503;28;20026;-72
2022/04/09 03:36:36;;;;;;;35.10;9.88;;;;;;;;;;5117821;28;20039;-72
2022/04/09 03:39:02;;;;;;;23.83;9.27;;;;;;;;;;5118069;28;20068;-72
2022/04/09 03:41:28;;;;;;;38.58;10.93;;;;;;;;;;5117825;28;20090;-73
2022/04/09 03:43:54;;;;;;;32.85;11.65;;;;;;;;;;5117205;28;20323;-73
2022/04/09 03:46:20;;;;;;;47.50;13.98;;;;;;;;;;5120466;28;20024;-73
2022/04/09 03:48:46;;;;;;;30.65;12.13;;;;;;;;;;5118053;27;20031;-73
2022/04/09 03:51:12;;;;;;;45.97;14.05;;;;;;;;;;5118472;28;20085;-72
2022/04/09 03:53:38;;;;;;;34.17;10.82;;;;;;;;;;5120630;28;20028;-72
2022/04/09 03:56:05;;;;;;;40.38;12.57;;;;;;;;;;5117629;28;20035;-72
2022/04/09 03:58:31;;;;;;;34.38;11.45;;;;;;;;;;5120691;28;20073;-73
2022/04/09 04:00:57;;;;;;;44.78;12.52;;;;;;;;;;5120007;28;20024;-72
2022/04/09 04:03:25;;;;;;;30.63;10.38;;;;;;;;;;5122411;28;20477;-73
2022/04/09 04:05:51;;;;;;;46.00;11.20;;;;;;;;;;5118566;28;20071;-73
2022/04/09 04:08:17;;;;;;;46.42;13.82;;;;;;;;;;5118825;28;20111;-72
2022/04/09 04:10:43;;;;;;;43.53;10.60;;;;;;;;;;5118165;28;20032;-73
2022/04/09 04:13:10;;;;;;;31.42;9.48;;;;;;;;;;5119501;28;20085;-72
2022/04/09 04:15:36;;;;;;;31.95;9.45;;;;;;;;;;5121085;28;20035;-73
2022/04/09 04:18:02;;;;;;;35.03;11.27;;;;;;;;;;5115984;28;20375;-72
2022/04/09 04:20:28;;;;;;;34.50;10.93;;;;;;;;;;5116226;28;20065;-72
2022/04/09 04:22:55;;;;;;;42.53;13.00;;;;;;;;;;5117880;28;20023;-72
2022/04/09 04:25:21;;;;;;;37.65;10.88;;;;;;;;;;5115678;28;20282;-72
2022/04/09 04:27:49;;;;;;;41.15;12.98;;;;;;;;;;5117407;28;20023;-72
2022/04/09 04:30:15;;;;;;;48.78;12.55;;;;;;;;;;5117972;28;20034;-72
2022/04/09 04:32:41;;;;;;;32.28;11.68;;;;;;;;;;5114911;28;20028;-72
2022/04/09 04:35:08;;;;;;;32.42;11.60;;;;;;;;;;5119089;28;20080;-72
2022/04/09 04:37:37;;;;;;;29.70;9.27;;;;;;;;;;5116435;28;20016;-72
2022/04/09 04:40:04;;;;;;;34.58;9.00;;;;;;;;;;5116574;28;20028;-72
2022/04/09 04:42:30;;;;;;;40.85;13.32;;;;;;;;;;5115851;28;20057;-72
2022/04/09 04:44:56;;;;;;;40.22;10.65;;;;;;;;;;5118228;28;20216;-73
2022/04/09 04:47:22;;;;;;;33.67;9.57;;;;;;;;;;5116228;28;20034;-71
2022/04/09 04:49:48;;;;;;;23.27;8.88;;;;;;;;;;5116960;28;20110;-72
2022/04/09 04:52:19;;;;;;;28.58;10.35;;;;;;;;;;5115164;28;20015;-72
2022/04/09 04:54:46;;;;;;;37.45;13.25;;;;;;;;;;5098122;28;20063;-72
2022/04/09 04:57:12;;;;;;;42.20;13.50;;;;;;;;;;5116026;28;20050;-72
2022/04/09 04:59:38;;;;;;;34.75;11.15;;;;;;;;;;5116555;28;20041;-73
2022/04/09 05:02:04;;;;;;;39.20;9.95;;;;;;;;;;5116571;28;20016;-73
2022/04/09 05:04:30;;;;;;;45.15;11.27;;;;;;;;;;5116663;28;20184;-73
2022/04/09 05:06:56;;;;;;;34.88;13.10;;;;;;;;;;5117086;28;20479;-72
2022/04/09 05:09:23;;;;;;;40.53;15.77;;;;;;;;;;5115255;28;20027;-72
2022/04/09 05:11:49;;;;;;;31.88;12.35;;;;;;;;;;5115760;28;20020;-72
2022/04/09 05:14:15;;;;;;;39.22;10.30;;;;;;;;;;5112986;28;20020;-73
2022/04/09 05:16:41;;;;;;;30.70;11.75;;;;;;;;;;5115430;28;20167;-72
2022/04/09 05:19:07;;;;;;;26.20;9.73;;;;;;;;;;5116586;28;20440;-72
2022/04/09 05:21:33;;;;;;;28.50;12.05;;;;;;;;;;5112575;28;20015;-72
2022/04/09 05:23:59;;;;;;;28.00;10.02;;;;;;;;;;5112250;28;20102;-72
2022/04/09 05:26:25;;;;;;;43.30;12.10;;;;;;;;;;5117460;28;20329;-72
2022/04/09 05:28:53;;;;;;;33.80;10.70;;;;;;;;;;5120384;28;20120;-72
2022/04/09 05:31:28;;;;;;;29.77;10.50;;;;;;;;;;5116115;28;20048;-72
2022/04/09 05:33:55;;;;;;;58.17;16.33;;;;;;;;;;5116061;28;20445;-72
2022/04/09 05:36:21;;;;;;;48.13;10.48;;;;;;;;;;5116960;28;20038;-72
2022/04/09 05:38:47;;;;;;;24.27;8.80;;;;;;;;;;5116615;28;20409;-72
2022/04/09 05:41:13;;;;;;;46.13;10.38;;;;;;;;;;5119670;28;20041;-72
2022/04/09 05:43:39;;;;;;;36.92;9.88;;;;;;;;;;5116957;28;20047;-72
2022/04/09 05:46:05;;;;;;;34.75;11.45;;;;;;;;;;5115479;28;20031;-72
2022/04/09 05:48:32;;;;;;;31.58;9.40;;;;;;;;;;5115600;28;20027;-72
2022/04/09 05:50:59;;;;;;;53.63;12.02;;;;;;;;;;5101852;28;20032;-73
2022/04/09 05:53:25;;;;;;;30.50;8.27;;;;;;;;;;5120985;28;20019;-72
2022/04/09 05:55:51;;;;;;;31.90;7.85;;;;;;;;;;5120858;28;20069;-72
2022/04/09 05:58:17;;;;;;;33.72;8.88;;;;;;;;;;5129635;28;20473;-71
2022/04/09 06:00:43;;;;;;;30.42;9.07;;;;;;;;;;5105972;28;20122;-72
2022/04/09 06:03:10;;;;;;;24.75;7.50;;;;;;;;;;5118858;28;20026;-72
2022/04/09 06:05:36;;;;;;;23.77;6.70;;;;;;;;;;5119415;28;20019;-72
2022/04/09 06:08:02;;;;;;;27.17;7.35;;;;;;;;;;5119861;28;20015;-72
2022/04/09 06:10:29;;;;;;;31.40;6.68;;;;;;;;;;5121862;28;20144;-72
2022/04/09 06:12:55;;;;;;;19.80;6.13;;;;;;;;;;5128936;28;20016;-74
2022/04/09 06:15:22;;;;;;;33.55;6.80;;;;;;;;;;5122842;28;20186;-73
2022/04/09 06:17:48;;;;;;;27.48;7.07;;;;;;;;;;5117762;28;20027;-73
2022/04/09 06:20:15;;;;;;;52.08;8.45;;;;;;;;;;5119314;28;20020;-73
2022/04/09 06:22:41;;;;;;;21.38;5.93;;;;;;;;;;5118080;28;20451;-72
2022/04/09 06:25:08;;;;;;;30.55;8.15;;;;;;;;;;5119143;28;20425;-73
2022/04/09 06:27:37;;;;;;;21.40;7.00;;;;;;;;;;5123251;28;20379;-73
2022/04/09 06:30:04;;;;;;;26.08;6.72;;;;;;;;;;5119832;28;20050;-73
2022/04/09 06:32:30;;;;;;;21.92;5.05;;;;;;;;;;5119496;28;20015;-73
2022/04/09 06:34:56;;;;;;;26.08;6.57;;;;;;;;;;5118497;28;20443;-73
2022/04/09 06:37:22;;;;;;;24.17;5.13;;;;;;;;;;5119324;28;20051;-73
2022/04/09 06:39:48;;;;;;;22.98;6.90;;;;;;;;;;5117731;28;20020;-73
2022/04/09 06:42:14;;;;;;;24.48;5.50;;;;;;;;;;5119229;28;20020;-73
2022/04/09 06:44:41;;;;;;;25.58;6.20;;;;;;;;;;5118687;28;20019;-73
2022/04/09 06:47:08;;;;;;;28.73;7.43;;;;;;;;;;5119664;28;20019;-73
2022/04/09 06:49:38;;;;;;;18.50;5.53;;;;;;;;;;5118997;28;20012;-73
2022/04/09 06:52:05;;;;;;;17.60;6.68;;;;;;;;;;5119779;28;20020;-74
2022/04/09 06:54:32;;;;;;;21.48;8.00;;;;;;;;;;5120571;28;20027;-74
2022/04/09 06:56:58;;;;;;;16.67;6.38;;;;;;;;;;5118510;28;20031;-73
2022/04/09 06:59:24;;;;;;;16.95;5.90;;;;;;;;;;5118297;28;20016;-73
2022/04/09 07:01:50;;;;;;;30.95;6.28;;;;;;;;;;5119199;28;20432;-73
2022/04/09 07:04:16;;;;;;;20.30;5.70;;;;;;;;;;5117177;28;20019;-73
2022/04/09 07:06:44;;;;;;;25.60;7.43;;;;;;;;;;5118348;28;20030;-73
2022/04/09 07:09:10;;;;;;;19.70;6.93;;;;;;;;;;5117163;28;20054;-73
2022/04/09 07:11:36;;;;;;;26.67;8.30;;;;;;;;;;5117392;28;20063;-73
2022/04/09 07:14:02;;;;;;;21.08;6.38;;;;;;;;;;5118087;28;20027;-71
2022/04/09 07:16:28;;;;;;;18.95;7.80;;;;;;;;;;5118555;28;20024;-74
2022/04/09 07:18:55;;;;;;;29.35;9.13;;;;;;;;;;5116972;28;20031;-73
2022/04/09 07:21:21;;;;;;;25.60;7.57;;;;;;;;;;5118530;28;20026;-73
2022/04/09 07:23:47;;;;;;;26.75;8.00;;;;;;;;;;5117182;28;20023;-73
2022/04/09 07:26:13;;;;;;;32.88;9.68;;;;;;;;;;5118278;28;20102;-73
2022/04/09 07:28:39;;;;;;;26.42;7.50;;;;;;;;;;5117456;28;20392;-73
2022/04/09 07:31:05;;;;;;;19.35;7.13;;;;;;;;;;5118006;28;20322;-73
2022/04/09 07:33:31;;;;;;;27.77;8.63;;;;;;;;;;5119012;28;20064;-73
2022/04/09 07:35:57;;;;;;;34.63;9.55;;;;;;;;;;5118896;28;20443;-73
2022/04/09 07:38:23;;;;;;;18.33;7.10;;;;;;;;;;5117906;28;20050;-73
2022/04/09 07:40:49;;;;;;;29.65;10.02;;;;;;;;;;5119051;28;20027;-73
2022/04/09 07:43:15;;;;;;;21.52;6.50;;;;;;;;;;5118722;28;20058;-73
2022/04/09 07:45:41;;;;;;;20.52;8.73;;;;;;;;;;5118761;28;20028;-73
2022/04/09 07:48:07;;;;;;;22.88;6.82;;;;;;;;;;5118157;28;20047;-73
2022/04/09 07:50:34;;;;;;;31.33;8.45;;;;;;;;;;5118041;28;20403;-73
2022/04/09 07:53:00;;;;;;;23.35;6.80;;;;;;;;;;5118096;28;20023;-73
2022/04/09 07:55:26;;;;;;;22.00;6.20;;;;;;;;;;5117876;28;20031;-73
2022/04/09 07:57:54;;;;;;;30.45;8.48;;;;;;;;;;5117959;28;20015;-73
2022/04/09 08:00:21;;;;;;;16.75;6.28;;;;;;;;;;5117018;28;20064;-73
2022/04/09 08:02:47;;;;;;;24.23;7.00;;;;;;;;;;5117787;28;20015;-73
2022/04/09 08:05:13;;;;;;;26.67;7.07;;;;;;;;;;5117685;28;20425;-73
2022/04/09 08:07:40;;;;;;;29.05;5.75;;;;;;;;;;5117712;28;20043;-73
2022/04/09 08:10:06;;;;;;;19.42;6.20;;;;;;;;;;5118190;27;20333;-74
2022/04/09 08:12:32;;;;;;;20.13;6.68;;;;;;;;;;5118127;28;20032;-73
2022/04/09 08:14:59;;;;;;;20.35;7.05;;;;;;;;;;5116290;28;20084;-73
2022/04/09 08:17:25;;;;;;;20.90;6.57;;;;;;;;;;5117145;28;20103;-73
2022/04/09 08:19:51;;;;;;;26.35;6.25;;;;;;;;;;5117495;28;20030;-73
2022/04/09 08:22:18;;;;;;;16.35;6.40;;;;;;;;;;5117956;28;20028;-73
2022/04/09 08:24:45;;;;;;;31.92;7.47;;;;;;;;;;5118290;28;20024;-73
2022/04/09 08:27:11;;;;;;;16.10;6.70;;;;;;;;;;5117969;28;20352;-73
2022/04/09 08:29:37;;;;;;;22.48;7.38;;;;;;;;;;5118186;28;20015;-73
2022/04/09 08:32:04;;;;;;;18.65;7.03;;;;;;;;;;5116659;28;20318;-73
2022/04/09 08:34:33;;;;;;;27.25;6.57;;;;;;;;;;5118272;28;20016;-74
2022/04/09 08:36:59;;;;;;;23.95;7.25;;;;;;;;;;5119478;28;20015;-74
2022/04/09 08:39:25;;;;;;;20.88;5.50;;;;;;;;;;5116724;28;20020;-73
2022/04/09 08:41:53;;;;;;;16.83;6.32;;;;;;;;;;5117152;28;20015;-73
2022/04/09 08:44:19;;;;;;;14.93;6.35;;;;;;;;;;5117232;28;20417;-74
2022/04/09 08:46:48;;;;;;;36.15;6.75;;;;;;;;;;5116592;28;20130;-73
2022/04/09 08:49:14;;;;;;;29.42;7.00;;;;;;;;;;5117578;28;20016;-73
2022/04/09 08:51:40;;;;;;;20.13;6.97;;;;;;;;;;5116178;28;20035;-73
2022/04/09 08:54:08;;;;;;;17.48;7.07;;;;;;;;;;5116903;28;20030;-73
2022/04/09 08:56:34;;;;;;;28.20;6.63;;;;;;;;;;5116705;28;20016;-73
2022/04/09 08:59:01;;;;;;;27.08;7.20;;;;;;;;;;5116534;28;20413;-74
2022/04/09 09:01:27;;;;;;;19.40;8.18;;;;;;;;;;5118227;28;20425;-73
2022/04/09 09:03:54;;;;;;;27.40;7.15;;;;;;;;;;5121340;28;20073;-72
2022/04/09 09:06:28;;;;;;;24.42;7.32;;;;;;;;;;5121667;27;20024;-72
2022/04/09 09:08:54;;;;;;;15.73;6.78;;;;;;;;;;5119843;28;20019;-72
2022/04/09 09:11:21;;;;;;;25.98;8.65;;;;;;;;;;5121164;28;20122;-73
2022/04/09 09:13:48;;;;;;;20.20;8.18;;;;;;;;;;5120255;28;20019;-73
2022/04/09 09:16:22;;;;;;;31.40;7.30;;;;;;;;;;5120975;28;20104;-73
2022/04/09 09:18:50;;;;;;;23.08;6.25;;;;;;;;;;5121596;28;20473;-73
2022/04/09 09:21:18;;;;;;;24.45;7.50;;;;;;;;;;5121539;28;20092;-73
2022/04/09 09:23:43;;;;;;;23.10;7.63;;;;;;;;;;5121253;28;20498;-73
2022/04/09 09:26:10;;;;;;;15.90;5.05;;;;;;;;;;5121430;28;20023;-73
2022/04/09 09:28:36;;;;;;;28.30;7.32;;;;;;;;;;5121402;28;20030;-73
2022/04/09 09:31:02;;;;;;;16.15;5.18;;;;;;;;;;5120048;28;20036;-73
2022/04/09 09:33:28;;;;;;;22.50;6.47;;;;;;;;;;5121056;28;20019;-73
2022/04/09 09:35:55;;;;;;;22.20;6.53;;;;;;;;;;5121154;28;20029;-73
2022/04/09 09:38:28;;;;;;;19.30;6.15;;;;;;;;;;5120031;28;20027;-74
2022/04/09 09:40:55;;;;;;;27.27;7.95;;;;;;;;;;5121168;28;20026;-72
2022/04/09 09:43:22;;;;;;;32.35;5.30;;;;;;;;;;5121078;28;20043;-72
2022/04/09 09:45:49;;;;;;;17.63;6.25;;;;;;;;;;5121076;28;20024;-73
2022/04/09 09:48:26;;;;;;;20.25;5.82;;;;;;;;;;5120610;28;20440;-73
2022/04/09 09:50:53;;;;;;;32.03;6.20;;;;;;;;;;5120229;28;20041;-73
2022/04/09 09:53:29;;;;;;;30.92;7.43;;;;;;;;;;5120968;28;20020;-73
2022/04/09 09:55:56;;;;;;;38.38;5.78;;;;;;;;;;5120740;28;20111;-72
2022/04/09 09:58:23;;;;;;;17.67;5.70;;;;;;;;;;5120495;28;20366;-73
2022/04/09 10:00:49;;;;;;;28.67;7.32;;;;;;;;;;5120850;28;20022;-73
2022/04/09 10:03:16;;;;;;;28.90;8.77;;;;;;;;;;5120746;28;20042;-75
2022/04/09 10:05:43;;;;;;;32.55;6.53;;;;;;;;;;5119512;28;20042;-75
2022/04/09 10:08:09;;;;;;;22.75;5.82;;;;;;;;;;5122704;28;20353;-74
2022/04/09 10:10:36;;;;;;;20.50;5.80;;;;;;;;;;5122378;27;20500;-74
2022/04/09 10:13:05;;;;;;;22.63;5.70;;;;;;;;;;5119852;27;20337;-73
2022/04/09 10:15:32;;;;;;;18.25;6.38;;;;;;;;;;5120433;28;20053;-74
2022/04/09 10:17:59;;;;;;;16.92;6.57;;;;;;;;;;5118793;28;20011;-73
2022/04/09 10:20:25;;;;;;;19.20;6.07;;;;;;;;;;5120392;28;20074;-73
2022/04/09 10:22:53;;;;;;;24.48;7.85;;;;;;;;;;5120073;28;20429;-76
2022/04/09 10:25:20;;;;;;;12.57;6.05;;;;;;;;;;5120298;28;20061;-72
2022/04/09 10:27:52;;;;;;;15.52;4.57;;;;;;;;;;5120231;28;20019;-74
2022/04/09 10:30:19;;;;;;;17.88;7.35;;;;;;;;;;5118852;28;20072;-73
2022/04/09 10:32:46;;;;;;;20.75;4.95;;;;;;;;;;5120107;28;20064;-72
2022/04/09 10:35:41;;;;;;;14.45;6.90;;;;;;;;;;5119719;28;20042;-72
2022/04/09 10:38:07;;;;;;;21.80;4.68;;;;;;;;;;5102777;28;20035;-73
2022/04/09 10:40:34;;;;;;;11.98;5.72;;;;;;;;;;5119829;28;20024;-73
2022/04/09 10:43:01;;;;;;;13.82;6.65;;;;;;;;;;5119856;28;20019;-72
2022/04/09 10:45:30;;;;;;;15.90;4.72;;;;;;;;;;5119362;28;20026;-73
2022/04/09 10:48:06;;;;;;;10.68;4.78;;;;;;;;;;5119776;28;20083;-73
2022/04/09 10:50:51;;;;;;;13.60;5.95;;;;;;;;;;5118574;28;20353;-73
2022/04/09 10:53:17;;;;;;;12.55;5.20;;;;;;;;;;5119862;28;20424;-73
2022/04/09 10:55:43;;;;;;;12.38;4.57;;;;;;;;;;5119771;28;20027;-73
2022/04/09 10:58:10;;;;;;;13.57;5.07;;;;;;;;;;5119394;28;20345;-74
2022/04/09 11:00:37;;;;;;;17.75;8.05;;;;;;;;;;5118350;28;20015;-73
2022/04/09 11:03:22;;;;;;;11.23;4.50;;;;;;;;;;5118431;28;20023;-73
2022/04/09 11:05:48;;;;;;;15.25;6.13;;;;;;;;;;5119569;28;20443;-74
2022/04/09 11:08:15;;;;;;;11.38;3.67;;;;;;;;;;5119458;28;20110;-73
2022/04/09 11:10:41;;;;;;;14.15;3.72;;;;;;;;;;5119433;27;20382;-74
2022/04/09 11:13:12;;;;;;;16.58;4.53;;;;;;;;;;5119594;28;20444;-74
2022/04/09 11:15:44;;;;;;;10.82;4.57;;;;;;;;;;5118816;28;20348;-74
2022/04/09 11:18:10;;;;;;;13.68;5.97;;;;;;;;;;5119418;28;20016;-74
2022/04/09 11:20:37;;;;;;;11.45;3.75;;;;;;;;;;5119239;28;20020;-74
2022/04/09 11:23:10;;;;;;;14.55;4.28;;;;;;;;;;5119223;28;20020;-74
2022/04/09 11:25:39;;;;;;;17.08;4.95;;;;;;;;;;5118417;28;20020;-74
2022/04/09 11:28:13;;;;;;;12.23;4.55;;;;;;;;;;5118893;28;20016;-74
2022/04/09 11:30:55;;;;;;;11.55;4.50;;;;;;;;;;5117705;28;20110;-74
2022/04/09 11:33:22;;;;;;;9.18;3.63;;;;;;;;;;5118461;27;20598;-74
2022/04/09 11:35:48;;;;;;;10.50;4.53;;;;;;;;;;5119339;28;20042;-75
2022/04/09 11:38:15;;;;;;;11.98;4.07;;;;;;;;;;5118918;28;20019;-75
2022/04/09 11:40:47;;;;;;;13.95;5.47;;;;;;;;;;5117695;28;20042;-75
2022/04/09 11:43:17;;;;;;;7.57;4.25;;;;;;;;;;5118291;28;20038;-75
2022/04/09 11:45:44;;;;;;;12.10;3.92;;;;;;;;;;5118820;28;20023;-75
2022/04/09 11:48:17;;;;;;;10.60;4.45;;;;;;;;;;5117457;28;20019;-76
2022/04/09 11:50:43;;;;;;;14.82;4.55;;;;;;;;;;5117285;28;20046;-75
2022/04/09 11:53:13;;;;;;;12.73;4.88;;;;;;;;;;5118679;28;20016;-76
2022/04/09 11:55:43;;;;;;;12.40;5.57;;;;;;;;;;5118761;28;20023;-76
2022/04/09 11:58:11;;;;;;;;;;;;;;;;;;5118380;28;20020;-76
2022/04/09 12:00:38;;;;;;;14.88;5.47;;;;;;;;;;5117953;28;20265;-76
2022/04/09 12:03:05;;;;;;;13.15;5.18;;;;;;;;;;5118546;28;20325;-76
2022/04/09 12:05:37;;;;;;;14.25;6.32;;;;;;;;;;5117327;28;20023;-76
2022/04/09 12:08:11;;;;;;;15.07;7.40;;;;;;;;;;5118592;28;20019;-75
2022/04/09 12:10:50;;;;;;;11.80;5.68;;;;;;;;;;5118403;28;20070;-75
2022/04/09 12:13:25;;;;;;;13.02;6.13;;;;;;;;;;5118277;28;20048;-76
2022/04/09 12:15:51;;;;;;;12.30;6.47;;;;;;;;;;5118246;28;20026;-76
2022/04/09 12:18:33;;;;;;;16.38;7.28;;;;;;;;;;5118235;28;20414;-76
2022/04/09 12:21:16;;;;;;;19.50;7.80;;;;;;;;;;5117593;28;20344;-75
2022/04/09 12:23:42;;;;;;;16.02;5.65;;;;;;;;;;5116501;28;20413;-75
2022/04/09 12:26:21;;;;;;;11.85;5.45;;;;;;;;;;5119033;28;20026;-75
2022/04/09 12:28:47;;;;;;;22.92;6.32;;;;;;;;;;5117634;28;20022;-75
2022/04/09 12:31:25;;;;;;;12.60;4.78;;;;;;;;;;5117987;28;20333;-75
2022/04/09 12:33:58;;;;;;;12.35;5.70;;;;;;;;;;5117874;28;20016;-75
2022/04/09 12:36:24;;;;;;;10.38;5.30;;;;;;;;;;5118374;28;20124;-75
2022/04/09 12:38:50;;;;;;;11.48;4.72;;;;;;;;;;5117108;28;20016;-75
2022/04/09 12:41:16;;;;;;;11.75;5.25;;;;;;;;;;5117839;28;20110;-75
2022/04/09 12:43:42;;;;;;;14.18;5.15;;;;;;;;;;5116005;28;20115;-75
2022/04/09 12:46:11;;;;;;;12.77;5.55;;;;;;;;;;5117834;28;20034;-75
2022/04/09 12:48:41;;;;;;;19.60;9.10;;;;;;;;;;5117845;28;20042;-75
2022/04/09 12:51:07;;;;;;;15.80;7.93;;;;;;;;;;5117746;28;20429;-74
2022/04/09 12:53:33;;;;;;;15.05;9.73;;;;;;;;;;5117743;28;20035;-75
2022/04/09 12:56:03;;;;;;;16.88;8.80;;;;;;;;;;5117131;28;20019;-75
2022/04/09 12:58:30;;;;;;;18.48;10.40;;;;;;;;;;5117681;28;20030;-74
2022/04/09 13:00:57;;;;;;;20.77;11.25;;;;;;;;;;5116075;28;20382;-75
2022/04/09 13:03:23;;;;;;;18.35;11.13;;;;;;;;;;5117087;28;20043;-74
2022/04/09 13:05:49;;;;;;;27.08;11.05;;;;;;;;;;5117980;28;20421;-74
2022/04/09 13:08:15;;;;;;;21.48;12.18;;;;;;;;;;5116262;28;20024;-75
2022/04/09 13:10:41;;;;;;;27.55;9.80;;;;;;;;;;5117497;28;20076;-75
2022/04/09 13:13:07;;;;;;;21.92;9.50;;;;;;;;;;5116971;28;20012;-75
2022/04/09 13:15:33;;;;;;;25.10;8.88;;;;;;;;;;5116355;28;20020;-75
2022/04/09 13:17:59;;;;;;;36.30;10.75;;;;;;;;;;5116860;28;20015;-75
2022/04/09 13:20:25;;;;;;;24.58;11.48;;;;;;;;;;5117446;28;20085;-74
2022/04/09 13:22:51;;;;;;;18.73;10.88;;;;;;;;;;5116807;28;20008;-75
2022/04/09 13:25:19;;;;;;;21.52;10.80;;;;;;;;;;5117444;28;20051;-75
2022/04/09 13:27:47;;;;;;;31.60;14.48;;;;;;;;;;5116784;28;20012;-74
2022/04/09 13:30:14;;;;;;;19.77;8.88;;;;;;;;;;5116732;28;20031;-74
2022/04/09 13:32:40;;;;;;;27.40;9.27;;;;;;;;;;5115618;28;20077;-74
2022/04/09 13:35:06;;;;;;;24.13;9.23;;;;;;;;;;5117546;28;20074;-74
2022/04/09 13:37:33;;;;;;;31.13;12.32;;;;;;;;;;5117270;28;20034;-74
2022/04/09 13:39:59;;;;;;;25.92;10.32;;;;;;;;;;5115500;28;20016;-75
2022/04/09 13:42:25;;;;;;;24.70;11.23;;;;;;;;;;5117274;28;20168;-74
2022/04/09 13:44:51;;;;;;;24.35;10.13;;;;;;;;;;5116647;28;20026;-74
2022/04/09 13:47:18;;;;;;;21.45;9.40;;;;;;;;;;5117469;28;20061;-74
2022/04/09 13:49:44;;;;;;;21.33;9.18;;;;;;;;;;5121005;28;20082;-74
2022/04/09 13:52:10;;;;;;;26.02;11.20;;;;;;;;;;5119869;28;20019;-74
2022/04/09 13:54:37;;;;;;;31.80;13.77;;;;;;;;;;5121003;28;20015;-74
2022/04/09 13:57:03;;;;;;;22.88;11.45;;;;;;;;;;5120925;28;20023;-74
2022/04/09 13:59:29;;;;;;;26.02;11.88;;;;;;;;;;5120390;28;20022;-74
2022/04/09 14:01:55;;;;;;;35.70;12.93;;;;;;;;;;5120801;28;20123;-73
2022/04/09 14:04:22;;;;;;;20.63;10.98;;;;;;;;;;5120955;28;20043;-73
2022/04/09 14:06:48;;;;;;;25.73;11.38;;;;;;;;;;5120163;28;20413;-74
2022/04/09 14:09:14;;;;;;;22.00;11.02;;;;;;;;;;5120678;28;20023;-74
2022/04/09 14:11:40;;;;;;;20.15;12.82;;;;;;;;;;5120525;28;20035;-74
2022/04/09 14:14:06;;;;;;;24.42;9.75;;;;;;;;;;5120605;28;20023;-74
2022/04/09 14:16:32;;;;;;;23.52;10.05;;;;;;;;;;5120412;28;20028;-72
2022/04/09 14:18:58;;;;;;;27.20;12.98;;;;;;;;;;5120179;28;20043;-74
2022/04/09 14:21:26;;;;;;;24.13;11.55;;;;;;;;;;5121880;28;20084;-74
2022/04/09 14:23:52;;;;;;;31.48;14.48;;;;;;;;;;5120354;28;20413;-74
2022/04/09 14:26:18;;;;;;;25.77;12.88;;;;;;;;;;5120658;28;20027;-73